Time;durP1;ratioP1;P1;durP2;ratioP2;P2;SDS_P1;SDS_P2;PMS_P1;PMS_P2;Temp;Humidity;BMP_temperature;BMP_pressure;BME280_temperature;BME280_humidity;BME280_pressure;Samples;Min_cycle;Max_cycle;Signal;HPM_P1;HPM_P2
2022/10/19 00:10:17;;;;;;;101.13;43.83;;;14.90;99.90;;;;;;6156869;23;20016;-92
2022/10/19 00:23:25;;;;;;;100.20;43.63;;;15.00;99.90;;;;;;6257227;22;20035;-93
2022/10/19 00:31:04;;;;;;;93.78;44.13;;;15.00;99.90;;;;;;6250844;22;20025;-94
2022/10/19 00:33:32;;;;;;;91.78;42.63;;;15.00;99.90;;;;;;6196544;23;20012;-93
2022/10/19 00:35:59;;;;;;;85.95;41.90;;;15.10;99.90;;;;;;6195771;23;20015;-93
2022/10/19 00:38:26;;;;;;;91.72;42.72;;;15.00;99.90;;;;;;6196377;23;20015;-92
2022/10/19 00:40:52;;;;;;;100.45;45.70;;;15.10;99.90;;;;;;6196221;23;20008;-92
2022/10/19 00:43:23;;;;;;;85.97;42.70;;;15.00;99.90;;;;;;6221147;23;20024;-93
2022/10/19 00:45:50;;;;;;;100.50;44.42;;;15.00;99.90;;;;;;6196278;23;20477;-94
2022/10/19 00:48:32;;;;;;;93.88;45.45;;;15.00;99.90;;;;;;6196870;23;20012;-93
2022/10/19 00:51:00;;;;;;;93.95;44.33;;;15.00;99.90;;;;;;6195970;23;20012;-92
2022/10/19 00:53:30;;;;;;;96.45;43.10;;;14.90;99.90;;;;;;6195835;23;20422;-94
2022/10/19 00:56:01;;;;;;;110.45;49.15;;;14.90;99.90;;;;;;6195960;23;20027;-92
2022/10/19 00:58:31;;;;;;;90.82;42.72;;;15.00;99.90;;;;;;6196337;22;20012;-93
2022/10/19 01:01:18;;;;;;;102.90;45.80;;;15.00;99.90;;;;;;6196548;23;20367;-94
2022/10/19 01:03:45;;;;;;;114.07;48.33;;;15.00;99.90;;;;;;6190436;23;20470;-93
2022/10/19 01:06:16;;;;;;;118.82;52.47;;;15.00;99.90;;;;;;6215538;23;20000;-93
2022/10/19 01:08:46;;;;;;;112.63;49.20;;;15.10;99.90;;;;;;6215102;23;20008;-92
2022/10/19 01:11:34;;;;;;;102.00;47.40;;;15.10;99.90;;;;;;6214876;23;20124;-94
2022/10/19 01:15:02;;;;;;;117.43;49.53;;;15.10;99.90;;;;;;6193761;23;20114;-93
2022/10/19 01:17:53;;;;;;;117.90;49.72;;;15.20;99.90;;;;;;6215044;23;20017;-91
2022/10/19 01:20:49;;;;;;;127.10;51.28;;;15.20;99.90;;;;;;6165501;23;20090;-92
2022/10/19 01:23:52;;;;;;;114.93;49.75;;;15.30;99.90;;;;;;6214726;23;20017;-93
2022/10/19 01:26:57;;;;;;;118.78;51.75;;;15.40;99.90;;;;;;6164974;23;20004;-93
2022/10/19 01:29:53;;;;;;;124.93;52.47;;;15.40;99.90;;;;;;6214713;23;20016;-92
2022/10/19 01:32:24;;;;;;;117.68;52.42;;;15.40;99.90;;;;;;6189970;23;20062;-92
2022/10/19 01:35:25;;;;;;;120.53;51.97;;;15.50;99.90;;;;;;6214502;23;20088;-93
2022/10/19 01:38:22;;;;;;;120.75;52.03;;;15.50;99.90;;;;;;6214653;23;20018;-93
2022/10/19 01:40:57;;;;;;;127.15;51.03;;;15.50;99.90;;;;;;6210146;23;20004;-92
2022/10/19 01:43:44;;;;;;;126.10;52.70;;;15.60;99.90;;;;;;6190755;23;20040;-92
2022/10/19 01:46:41;;;;;;;116.45;51.03;;;15.60;99.90;;;;;;6190918;23;20088;-93
2022/10/19 01:49:27;;;;;;;112.75;50.25;;;15.70;99.90;;;;;;6130251;23;20013;-92
2022/10/19 01:52:04;;;;;;;125.70;53.08;;;15.70;99.90;;;;;;6155897;23;20009;-92
2022/10/19 01:54:39;;;;;;;127.30;53.13;;;15.70;99.90;;;;;;6155144;23;20017;-93
2022/10/19 01:57:13;;;;;;;129.60;54.50;;;15.80;99.90;;;;;;6130174;23;20013;-93
2022/10/19 01:59:41;;;;;;;123.75;53.08;;;15.90;99.90;;;;;;6155317;23;20009;-93
2022/10/19 02:02:09;;;;;;;133.20;55.70;;;15.90;99.90;;;;;;6154686;23;20020;-93
2022/10/19 02:04:38;;;;;;;129.13;52.40;;;16.00;99.90;;;;;;6130219;23;20076;-92
2022/10/19 02:07:07;;;;;;;137.05;58.20;;;16.10;99.90;;;;;;6154736;23;20076;-94
2022/10/19 02:09:34;;;;;;;128.93;54.92;;;16.20;99.90;;;;;;6154657;23;20006;-92
2022/10/19 02:12:07;;;;;;;135.18;56.33;;;16.30;99.90;;;;;;6155469;23;20029;-93
2022/10/19 02:14:39;;;;;;;142.60;58.78;;;16.30;99.90;;;;;;6156767;23;20017;-94
2022/10/19 02:17:29;;;;;;;133.02;56.85;;;16.40;99.90;;;;;;6156927;23;20037;-92
2022/10/19 02:19:58;;;;;;;134.00;55.55;;;16.50;99.90;;;;;;6157047;23;20005;-92
2022/10/19 02:22:25;;;;;;;141.73;58.95;;;16.50;99.90;;;;;;6156815;23;20447;-92
2022/10/19 02:24:52;;;;;;;133.10;57.17;;;16.50;99.90;;;;;;6157608;23;20029;-92
2022/10/19 02:27:19;;;;;;;122.75;54.17;;;16.40;99.90;;;;;;6195235;23;20013;-95
2022/10/19 02:29:45;;;;;;;129.90;55.85;;;16.50;99.90;;;;;;6198681;23;20012;-92
2022/10/19 02:32:13;;;;;;;126.95;54.65;;;16.50;99.90;;;;;;6193182;23;20430;-91
2022/10/19 02:34:40;;;;;;;118.45;52.67;;;16.50;99.90;;;;;;6192737;23;19997;-92
2022/10/19 02:37:09;;;;;;;122.15;51.60;;;16.60;99.90;;;;;;6192440;23;20009;-93
2022/10/19 02:39:38;;;;;;;117.57;52.67;;;16.60;99.90;;;;;;6191985;23;20015;-92
2022/10/19 02:42:12;;;;;;;115.57;48.88;;;16.60;99.90;;;;;;6191876;23;20092;-94
2022/10/19 02:44:43;;;;;;;108.95;49.72;;;16.70;99.90;;;;;;6192430;23;20137;-92
2022/10/19 02:47:42;;;;;;;110.35;52.30;;;16.70;99.90;;;;;;6192171;23;20084;-92
2022/10/19 02:50:11;;;;;;;106.50;47.30;;;16.80;99.90;;;;;;6191564;23;20044;-91
2022/10/19 02:52:39;;;;;;;109.45;50.28;;;16.80;99.90;;;;;;6192087;23;20001;-93
2022/10/19 02:55:07;;;;;;;110.30;50.13;;;16.80;99.90;;;;;;6192336;23;20135;-91
2022/10/19 02:57:34;;;;;;;107.43;49.67;;;16.90;99.90;;;;;;6192082;23;20112;-91
2022/10/19 03:00:03;;;;;;;108.00;47.50;;;16.90;99.90;;;;;;6191916;23;20438;-92
2022/10/19 03:09:30;;;;;;;107.10;46.13;;;16.90;99.90;;;;;;6218793;22;20035;-92
2022/10/19 03:11:57;;;;;;;115.32;48.83;;;16.90;99.90;;;;;;6196941;23;20008;-92
2022/10/19 03:14:34;;;;;;;101.90;48.25;;;16.90;99.90;;;;;;6197307;23;20008;-92
2022/10/19 03:17:04;;;;;;;100.68;45.72;;;16.90;99.90;;;;;;6197740;23;20011;-91
2022/10/19 03:19:31;;;;;;;105.18;48.95;;;17.00;99.90;;;;;;6196836;23;20008;-93
2022/10/19 03:21:58;;;;;;;108.95;48.50;;;16.90;99.90;;;;;;6197016;23;20015;-91
2022/10/19 03:24:24;;;;;;;111.97;49.47;;;16.90;99.90;;;;;;6196788;22;20042;-91
2022/10/19 03:26:51;;;;;;;114.32;51.85;;;16.90;99.90;;;;;;6197137;23;20031;-92
2022/10/19 03:29:17;;;;;;;113.32;49.65;;;16.90;99.90;;;;;;6196785;23;20012;-92
2022/10/19 03:31:44;;;;;;;110.78;50.95;;;16.80;99.90;;;;;;6196777;23;19999;-92
2022/10/19 03:34:11;;;;;;;110.88;49.90;;;16.80;99.90;;;;;;6196625;22;20103;-91
2022/10/19 03:36:39;;;;;;;117.25;52.17;;;16.80;99.90;;;;;;6196840;23;20007;-91
2022/10/19 03:39:14;;;;;;;110.53;48.70;;;16.70;99.90;;;;;;6196907;23;20012;-93
2022/10/19 03:41:41;;;;;;;119.53;51.67;;;16.60;99.90;;;;;;6196685;23;20004;-92
2022/10/19 03:44:09;;;;;;;128.60;52.63;;;16.60;99.90;;;;;;6197036;23;20028;-92
2022/10/19 03:46:37;;;;;;;125.65;52.83;;;16.50;99.90;;;;;;6197036;23;20110;-94
2022/10/19 03:49:04;;;;;;;130.80;53.13;;;16.50;99.90;;;;;;6196520;23;20307;-91
2022/10/19 03:51:32;;;;;;;128.98;53.03;;;16.50;99.90;;;;;;6196822;23;20004;-92
2022/10/19 03:54:05;;;;;;;118.93;51.75;;;16.50;99.90;;;;;;6196357;23;20004;-92
2022/10/19 03:56:33;;;;;;;123.23;52.93;;;16.40;99.90;;;;;;6196468;23;20008;-93
2022/10/19 03:59:02;;;;;;;119.25;51.53;;;16.40;99.90;;;;;;6196378;23;20253;-92
2022/10/19 04:01:38;;;;;;;130.27;52.28;;;16.40;99.90;;;;;;6196598;23;20004;-92
2022/10/19 04:04:17;;;;;;;140.20;55.25;;;16.30;99.90;;;;;;6197878;23;20016;-93
2022/10/19 04:06:45;;;;;;;143.02;55.88;;;16.20;99.90;;;;;;6197267;23;20012;-92
2022/10/19 04:10:28;;;;;;;;;;;;;;;;;;;;;
2022/10/19 04:13:20;;;;;;;135.93;55.08;;;16.00;99.90;;;;;;6213308;23;20100;-91
2022/10/19 04:15:48;;;;;;;138.50;54.78;;;16.00;99.90;;;;;;6191337;23;20088;-93
2022/10/19 04:18:56;;;;;;;;;;;;;;;;;;;;;
2022/10/19 04:22:10;;;;;;;150.35;57.67;;;15.90;99.90;;;;;;6128268;23;20006;-93
2022/10/19 04:24:52;;;;;;;162.50;59.03;;;15.80;99.90;;;;;;6103550;23;20010;-93
2022/10/19 04:27:28;;;;;;;157.57;57.95;;;15.70;99.90;;;;;;6131922;22;20039;-93
2022/10/19 04:29:57;;;;;;;168.60;61.17;;;15.70;99.90;;;;;;6222243;23;20442;-92
2022/10/19 04:49:37;;;;;;;204.60;66.60;;;15.40;99.90;;;;;;6254976;22;20338;-92
2022/10/19 04:56:05;;;;;;;181.32;63.88;;;15.40;99.90;;;;;;6250841;22;20346;-93
2022/10/19 05:02:27;;;;;;;;;;;;;;;;;;;;;
2022/10/19 05:05:20;;;;;;;257.20;66.78;;;15.40;99.90;;;;;;6099211;23;20028;-93
2022/10/19 05:07:49;;;;;;;206.60;63.58;;;15.30;99.90;;;;;;6156135;23;20436;-93
2022/10/19 05:10:18;;;;;;;183.35;60.05;;;15.20;99.90;;;;;;6156763;23;20017;-91
2022/10/19 05:12:45;;;;;;;177.40;60.33;;;15.20;99.90;;;;;;6155541;23;20042;-94
2022/10/19 05:19:15;;;;;;;163.25;57.15;;;15.20;99.90;;;;;;6151736;23;20048;-94
2022/10/19 05:21:49;;;;;;;140.77;55.13;;;15.20;99.90;;;;;;6038909;23;20048;-92
2022/10/19 05:24:16;;;;;;;145.50;53.88;;;15.20;99.90;;;;;;6015119;23;20015;-92
2022/10/19 05:26:52;;;;;;;134.15;53.30;;;15.20;99.90;;;;;;6088678;23;20006;-93
2022/10/19 05:29:32;;;;;;;120.70;49.40;;;15.20;99.90;;;;;;6156926;23;20016;-92
2022/10/19 05:32:44;;;;;;;119.40;50.42;;;15.30;99.90;;;;;;6155100;23;20017;-93
2022/10/19 05:35:23;;;;;;;130.88;51.50;;;15.30;99.90;;;;;;6072578;23;20456;-93
2022/10/19 05:38:00;;;;;;;104.78;46.67;;;15.20;99.90;;;;;;6072148;23;20011;-93
2022/10/19 05:40:29;;;;;;;122.28;51.33;;;15.20;99.90;;;;;;6075768;23;20007;-91
2022/10/19 05:42:56;;;;;;;109.70;47.75;;;15.20;99.90;;;;;;6105893;23;20024;-92
2022/10/19 05:45:25;;;;;;;95.22;43.10;;;15.30;99.90;;;;;;6106382;23;20009;-93
2022/10/19 05:47:54;;;;;;;91.85;43.45;;;15.40;99.90;;;;;;6106445;23;20106;-92
2022/10/19 05:50:21;;;;;;;79.03;42.30;;;15.40;99.90;;;;;;6130893;23;20009;-94
2022/10/19 05:55:38;;;;;;;63.70;36.55;;;15.70;99.90;;;;;;6220067;23;20032;-92
2022/10/19 05:59:03;;;;;;;74.78;39.47;;;16.10;99.90;;;;;;6171315;23;20017;-94
2022/10/19 06:05:08;;;;;;;64.18;36.03;;;17.40;99.90;;;;;;6220680;23;20055;-92
2022/10/19 06:08:11;;;;;;;52.47;32.85;;;17.80;99.90;;;;;;6166223;23;20034;-94
2022/10/19 06:10:38;;;;;;;50.40;31.27;;;17.90;99.90;;;;;;6160374;23;20009;-94
2022/10/19 06:13:05;;;;;;;43.97;30.65;;;18.00;99.90;;;;;;6161437;23;20005;-92
2022/10/19 06:15:35;;;;;;;49.08;32.58;;;18.20;99.90;;;;;;6136314;23;20019;-95
2022/10/19 06:18:12;;;;;;;54.38;34.08;;;18.40;99.90;;;;;;6160926;23;20067;-94
2022/10/19 06:20:45;;;;;;;52.35;36.35;;;18.40;99.90;;;;;;6161882;23;20080;-92
2022/10/19 06:23:23;;;;;;;51.85;36.55;;;18.60;99.90;;;;;;6145066;23;20021;-93
2022/10/19 06:25:59;;;;;;;54.45;36.55;;;18.80;99.90;;;;;;6187470;23;20005;-93
2022/10/19 06:28:26;;;;;;;59.47;39.10;;;19.00;99.90;;;;;;6136515;23;20009;-93
2022/10/19 06:30:52;;;;;;;54.22;38.50;;;19.40;99.90;;;;;;6136609;23;20043;-92
2022/10/19 06:33:19;;;;;;;61.08;38.80;;;19.70;99.90;;;;;;6186094;23;20014;-93
2022/10/19 06:35:45;;;;;;;58.60;40.03;;;19.80;99.90;;;;;;6136399;23;20001;-93
2022/10/19 06:38:16;;;;;;;65.60;40.72;;;20.10;99.90;;;;;;6160670;23;20009;-92
2022/10/19 06:40:42;;;;;;;56.33;39.03;;;20.50;99.90;;;;;;6160968;23;20099;-93
2022/10/19 06:43:09;;;;;;;58.95;38.45;;;20.80;99.90;;;;;;6162941;23;20036;-92
2022/10/19 06:45:39;;;;;;;60.60;39.53;;;20.80;99.90;;;;;;6165024;23;20013;-93
2022/10/19 06:48:05;;;;;;;58.97;41.45;;;21.10;99.90;;;;;;6136656;23;20360;-93
2022/10/19 06:50:33;;;;;;;58.40;40.90;;;21.20;99.90;;;;;;6160613;23;20013;-94
2022/10/19 06:53:38;;;;;;;56.28;39.97;;;21.30;99.90;;;;;;6160975;23;20008;-93
2022/10/19 06:56:06;;;;;;;56.55;39.28;;;21.70;99.90;;;;;;6137786;23;20020;-93
2022/10/19 06:58:37;;;;;;;62.20;41.10;;;21.60;99.90;;;;;;6137133;23;20415;-91
2022/10/19 07:01:06;;;;;;;55.17;37.42;;;21.70;99.90;;;;;;6139923;23;20017;-75
2022/10/19 07:03:33;;;;;;;56.25;36.42;;;21.60;99.90;;;;;;6184683;23;20013;-75
2022/10/19 07:06:03;;;;;;;60.95;36.50;;;21.30;99.90;;;;;;6179815;23;20028;-74
2022/10/19 07:08:31;;;;;;;58.47;36.22;;;21.20;99.90;;;;;;6187316;23;20155;-74
2022/10/19 07:11:00;;;;;;;59.65;35.50;;;20.90;99.90;;;;;;6186893;23;20001;-75
2022/10/19 07:13:28;;;;;;;57.58;36.53;;;21.00;99.90;;;;;;6160464;23;20008;-75
2022/10/19 07:16:02;;;;;;;56.97;35.05;;;21.00;99.90;;;;;;6187294;23;20005;-75
2022/10/19 07:18:29;;;;;;;60.75;35.10;;;21.00;99.90;;;;;;6187084;23;20327;-74
2022/10/19 07:20:57;;;;;;;53.00;34.35;;;21.00;99.90;;;;;;6186928;23;20021;-80
2022/10/19 07:23:26;;;;;;;53.72;33.92;;;21.20;99.90;;;;;;6160451;23;20400;-79
2022/10/19 07:25:58;;;;;;;51.05;34.83;;;21.30;99.90;;;;;;6186926;23;20323;-79
2022/10/19 07:28:26;;;;;;;59.03;35.33;;;21.30;99.90;;;;;;6187071;23;20039;-79
2022/10/19 07:30:52;;;;;;;56.55;33.90;;;21.30;99.90;;;;;;6160519;23;20080;-79
2022/10/19 07:33:18;;;;;;;50.47;33.97;;;21.30;99.90;;;;;;6185166;23;20151;-79
2022/10/19 07:35:44;;;;;;;51.30;34.85;;;21.30;99.90;;;;;;6161007;23;20056;-79
2022/10/19 07:38:10;;;;;;;55.67;33.65;;;21.30;99.90;;;;;;6136016;23;20347;-80
2022/10/19 07:40:38;;;;;;;53.15;33.10;;;21.40;99.90;;;;;;6161586;23;20328;-79
2022/10/19 07:43:04;;;;;;;47.38;33.65;;;21.60;99.90;;;;;;6187188;23;20013;-80
2022/10/19 07:45:32;;;;;;;51.53;33.88;;;22.00;99.90;;;;;;6135911;23;20390;-80
2022/10/19 07:47:59;;;;;;;53.47;35.47;;;22.10;99.90;;;;;;6186887;23;20033;-79
2022/10/19 07:50:26;;;;;;;57.97;34.58;;;22.10;99.90;;;;;;6186693;23;20004;-80
2022/10/19 07:52:53;;;;;;;47.13;33.92;;;22.10;99.90;;;;;;6186715;23;20005;-80
2022/10/19 07:55:19;;;;;;;52.78;33.33;;;22.10;99.90;;;;;;6160303;23;20420;-79
2022/10/19 07:57:48;;;;;;;49.95;31.23;;;22.10;99.90;;;;;;6186594;23;20055;-79
2022/10/19 08:00:18;;;;;;;57.47;35.05;;;21.90;99.90;;;;;;6160709;23;20426;-79
2022/10/19 08:02:44;;;;;;;45.17;29.58;;;21.40;99.90;;;;;;6186232;23;20017;-79
2022/10/19 08:05:11;;;;;;;42.60;28.00;;;20.90;99.90;;;;;;6160486;23;20040;-79
2022/10/19 08:07:37;;;;;;;41.25;27.30;;;20.50;99.90;;;;;;6135712;23;20051;-79
2022/10/19 08:10:04;;;;;;;42.13;29.38;;;20.40;99.90;;;;;;6187575;23;20021;-79
2022/10/19 08:12:30;;;;;;;37.33;26.92;;;20.30;99.90;;;;;;6186724;23;20374;-79
2022/10/19 08:14:56;;;;;;;33.85;25.50;;;20.40;99.90;;;;;;6186442;23;20371;-79
2022/10/19 08:17:26;;;;;;;37.78;27.70;;;20.60;99.90;;;;;;6160095;23;20074;-79
2022/10/19 08:19:52;;;;;;;39.13;26.75;;;20.80;99.90;;;;;;6160215;23;20320;-79
2022/10/19 08:22:19;;;;;;;36.63;27.60;;;21.10;99.90;;;;;;6185496;23;20387;-79
2022/10/19 08:24:45;;;;;;;29.70;26.08;;;21.30;99.90;;;;;;6186222;23;20011;-79
2022/10/19 08:27:13;;;;;;;35.53;25.85;;;21.50;99.90;;;;;;6185006;23;20346;-79
2022/10/19 08:29:40;;;;;;;31.48;26.58;;;21.40;99.90;;;;;;6135602;23;20025;-79
2022/10/19 08:32:06;;;;;;;27.40;24.50;;;21.30;99.90;;;;;;6186489;23;20035;-80
2022/10/19 08:34:33;;;;;;;34.25;26.80;;;21.30;99.90;;;;;;6184664;23;20428;-80
2022/10/19 08:37:02;;;;;;;29.88;26.25;;;21.60;99.90;;;;;;6186444;23;20001;-79
2022/10/19 08:39:28;;;;;;;33.47;27.52;;;21.60;99.90;;;;;;6186337;23;20002;-79
2022/10/19 08:42:01;;;;;;;37.00;27.35;;;21.70;99.90;;;;;;6160054;23;20005;-79
2022/10/19 08:44:54;;;;;;;28.67;25.73;;;21.80;99.90;;;;;;6184686;23;20016;-79
2022/10/19 08:47:33;;;;;;;29.67;26.13;;;22.00;99.90;;;;;;6185296;23;20005;-79
2022/10/19 08:50:00;;;;;;;32.03;26.80;;;21.90;99.90;;;;;;6186742;23;20353;-77
2022/10/19 08:52:33;;;;;;;35.90;26.15;;;21.60;99.90;;;;;;6186086;23;20025;-77
2022/10/19 08:55:12;;;;;;;32.17;27.23;;;21.50;99.90;;;;;;6159828;23;20387;-78
2022/10/19 08:57:55;;;;;;;28.88;25.77;;;21.50;99.90;;;;;;6186518;23;20024;-78
2022/10/19 09:00:29;;;;;;;32.38;26.48;;;21.80;99.90;;;;;;6186224;23;20061;-78
2022/10/19 09:03:01;;;;;;;;;;;22.20;99.90;;;;;;6186602;23;20017;-78
2022/10/19 09:06:03;;;;;;;29.17;26.08;;;22.10;99.90;;;;;;6186238;23;20230;-78
2022/10/19 09:08:37;;;;;;;29.77;26.05;;;21.60;99.90;;;;;;6066552;23;20450;-78
2022/10/19 09:11:07;;;;;;;30.08;24.40;;;21.40;99.90;;;;;;6042718;23;20384;-83
2022/10/19 09:13:46;;;;;;;28.65;25.58;;;21.60;99.90;;;;;;6042899;23;20022;-84
2022/10/19 09:16:15;;;;;;;30.02;26.80;;;22.00;99.90;;;;;;6042727;23;20086;-84
2022/10/19 09:18:42;;;;;;;31.98;26.85;;;22.10;99.90;;;;;;6042806;23;20018;-87
2022/10/19 09:21:09;;;;;;;33.20;27.17;;;22.00;99.90;;;;;;6042847;23;20011;-84
2022/10/19 09:23:39;;;;;;;29.17;26.05;;;21.90;99.90;;;;;;6042277;23;20189;-84
2022/10/19 09:26:15;;;;;;;31.25;27.25;;;21.80;99.90;;;;;;6042829;23;20120;-85
2022/10/19 09:29:14;;;;;;;28.85;25.55;;;22.10;99.90;;;;;;6042799;23;20022;-85
2022/10/19 09:31:44;;;;;;;30.92;27.63;;;22.00;99.90;;;;;;6067434;23;20003;-85
2022/10/19 09:34:32;;;;;;;34.30;27.30;;;21.80;99.90;;;;;;6067036;23;20014;-86
2022/10/19 09:36:59;;;;;;;29.70;25.73;;;21.40;99.90;;;;;;6045854;23;20042;-90
2022/10/19 09:39:29;;;;;;;28.08;25.17;;;21.40;99.90;;;;;;6030927;23;20007;-89
2022/10/19 09:42:15;;;;;;;29.30;26.17;;;21.90;99.90;;;;;;6053048;23;20011;-89
2022/10/19 09:44:41;;;;;;;29.70;26.67;;;22.30;99.90;;;;;;6110643;23;20016;-89
2022/10/19 09:47:39;;;;;;;29.67;26.52;;;22.90;99.90;;;;;;6163728;23;20032;-89
2022/10/19 09:50:08;;;;;;;29.90;26.50;;;22.60;99.90;;;;;;6161192;23;20036;-87
2022/10/19 09:52:37;;;;;;;30.77;27.50;;;22.40;99.90;;;;;;6161727;23;20388;-86
2022/10/19 09:55:13;;;;;;;28.65;25.58;;;22.00;99.90;;;;;;6165521;23;20009;-89
2022/10/19 09:58:02;;;;;;;31.33;25.98;;;22.10;99.90;;;;;;6160951;23;20096;-89
2022/10/19 10:00:38;;;;;;;31.63;28.30;;;22.40;99.90;;;;;;6129895;23;20009;-91
2022/10/19 10:03:06;;;;;;;33.92;28.23;;;22.20;99.90;;;;;;6136841;23;20021;-89
2022/10/19 10:05:35;;;;;;;31.73;26.25;;;21.80;99.90;;;;;;6160437;23;20443;-87
2022/10/19 10:08:03;;;;;;;28.80;25.60;;;21.90;99.90;;;;;;6135674;23;20013;-87
2022/10/19 10:10:38;;;;;;;29.00;26.10;;;22.30;99.90;;;;;;6160460;23;20012;-88
2022/10/19 10:13:05;;;;;;;28.33;25.73;;;22.60;99.90;;;;;;6160249;23;20017;-87
2022/10/19 10:15:55;;;;;;;30.38;26.23;;;22.60;99.90;;;;;;6135783;23;20002;-86
2022/10/19 10:18:24;;;;;;;28.17;25.30;;;22.40;99.90;;;;;;6135700;23;20013;-88
2022/10/19 10:21:13;;;;;;;33.58;26.30;;;22.60;99.90;;;;;;6135750;23;20009;-86
2022/10/19 10:23:39;;;;;;;31.15;26.33;;;22.70;99.90;;;;;;6135407;23;20028;-86
2022/10/19 10:26:18;;;;;;;31.10;27.17;;;22.50;99.90;;;;;;6155034;23;20084;-88
2022/10/19 10:28:50;;;;;;;32.75;26.98;;;22.30;99.90;;;;;;6154669;23;20041;-90
2022/10/19 10:31:28;;;;;;;36.47;28.67;;;22.40;99.90;;;;;;6154832;23;20013;-87
2022/10/19 10:34:01;;;;;;;39.20;27.42;;;22.50;99.90;;;;;;6131353;23;20010;-89
2022/10/19 10:36:30;;;;;;;33.53;27.65;;;22.60;99.90;;;;;;6131946;23;20009;-89
2022/10/19 10:39:07;;;;;;;34.28;29.30;;;22.60;99.90;;;;;;6131539;23;20033;-88
2022/10/19 10:41:41;;;;;;;39.65;31.85;;;22.20;99.90;;;;;;6132057;23;20016;-88
2022/10/19 10:44:28;;;;;;;37.63;29.52;;;22.10;99.90;;;;;;6156271;23;20062;-88
2022/10/19 10:46:56;;;;;;;36.55;28.27;;;22.20;99.90;;;;;;6132391;23;20045;-88
2022/10/19 10:49:42;;;;;;;40.08;30.20;;;22.20;99.90;;;;;;6156515;23;20005;-87
2022/10/19 10:52:14;;;;;;;36.00;30.33;;;21.90;99.90;;;;;;6132272;23;20006;-87
2022/10/19 10:55:01;;;;;;;40.75;29.15;;;21.90;99.90;;;;;;6131529;23;20013;-88
2022/10/19 10:57:37;;;;;;;30.02;26.90;;;22.20;99.90;;;;;;6147444;23;20009;-88
2022/10/19 11:00:15;;;;;;;35.25;30.50;;;22.30;99.90;;;;;;6161806;23;20005;-85
2022/10/19 11:02:58;;;;;;;37.70;32.03;;;22.00;99.90;;;;;;6161441;23;20443;-87
2022/10/19 11:05:44;;;;;;;38.58;29.77;;;22.00;99.90;;;;;;6137157;23;20051;-87
2022/10/19 11:08:23;;;;;;;35.72;30.02;;;22.10;99.90;;;;;;6162098;23;20072;-87
2022/10/19 11:11:12;;;;;;;43.85;30.10;;;22.20;99.90;;;;;;6137538;23;20017;-87
2022/10/19 11:13:52;;;;;;;40.78;33.92;;;22.10;99.90;;;;;;6161769;23;20351;-87
2022/10/19 11:16:30;;;;;;;37.10;29.10;;;21.80;99.90;;;;;;6137119;23;20527;-87
2022/10/19 11:19:05;;;;;;;35.60;29.98;;;21.80;99.90;;;;;;6161953;23;20005;-86
2022/10/19 11:21:59;;;;;;;34.53;29.83;;;22.00;99.90;;;;;;6137630;23;20091;-85
2022/10/19 11:24:57;;;;;;;36.35;29.20;;;22.40;99.90;;;;;;6161614;23;20023;-85
2022/10/19 11:27:42;;;;;;;41.53;30.90;;;22.80;99.90;;;;;;6185232;23;20048;-83
2022/10/19 11:30:21;;;;;;;37.58;30.33;;;22.70;99.90;;;;;;6186712;23;20013;-87
2022/10/19 11:33:40;;;;;;;43.35;31.73;;;22.40;99.90;;;;;;6137229;23;20009;-87
2022/10/19 11:36:42;;;;;;;48.20;33.22;;;22.20;99.90;;;;;;6068742;23;20006;-85
2022/10/19 11:39:29;;;;;;;44.00;34.17;;;22.10;99.90;;;;;;6045136;23;20453;-85
2022/10/19 11:42:24;;;;;;;37.33;31.45;;;22.10;99.90;;;;;;6019738;23;20011;-84
2022/10/19 11:45:38;;;;;;;38.83;31.75;;;22.10;99.90;;;;;;6015985;23;20015;-84
2022/10/19 11:59:30;;;;;;;39.22;30.83;;;22.70;99.90;;;;;;6244976;22;20106;-94
2022/10/19 13:10:53;;;;;;;;;;;;;;;;;;;;;
2022/10/19 13:26:16;;;;;;;;;;;;;;;;;;;;;
2022/10/19 13:39:46;;;;;;;43.38;33.05;;;21.70;99.90;;;;;;6245246;22;20082;-93
2022/10/19 15:11:40;;;;;;;49.67;36.10;;;20.50;99.90;;;;;;6229220;22;20035;-93
2022/10/19 15:14:57;;;;;;;;;;;20.40;99.90;;;;;;6206695;23;20008;-94
2022/10/19 15:18:30;;;;;;;52.17;34.88;;;20.30;99.90;;;;;;6192058;22;19916;-92
2022/10/19 15:21:30;;;;;;;53.63;37.00;;;20.30;99.90;;;;;;6168364;23;20013;-92
2022/10/19 15:24:55;;;;;;;45.83;33.58;;;20.20;99.90;;;;;;6137701;23;20017;-93
2022/10/19 15:31:30;;;;;;;58.38;36.85;;;20.10;99.90;;;;;;6068878;23;20014;-93
2022/10/19 15:34:00;;;;;;;49.75;32.72;;;20.10;99.90;;;;;;6021865;23;20121;-93
2022/10/19 15:39:43;;;;;;;51.95;35.17;;;20.10;99.90;;;;;;6069642;23;20007;-93
2022/10/19 15:42:51;;;;;;;52.97;33.78;;;20.00;99.90;;;;;;6045423;23;20013;-92
2022/10/19 15:45:36;;;;;;;53.42;35.03;;;20.00;99.90;;;;;;6072636;23;20007;-92
2022/10/19 15:48:24;;;;;;;50.90;35.10;;;19.90;99.90;;;;;;6046786;23;20070;-95
2022/10/19 15:50:52;;;;;;;64.15;35.10;;;19.80;99.90;;;;;;6113803;23;20014;-92
2022/10/19 15:53:53;;;;;;;55.60;36.33;;;19.70;99.90;;;;;;6103728;23;20002;-93
2022/10/19 15:57:18;;;;;;;63.42;37.42;;;19.70;99.90;;;;;;6105272;23;20062;-92
2022/10/19 16:06:45;;;;;;;63.83;37.38;;;19.50;99.90;;;;;;6033696;23;20023;-93
2022/10/19 16:09:59;;;;;;;68.78;38.72;;;19.50;99.90;;;;;;5968137;24;20044;-92
2022/10/19 16:12:47;;;;;;;68.53;37.20;;;19.40;99.90;;;;;;5957880;24;20016;-92
2022/10/19 16:15:49;;;;;;;;;;;;;;;;;;;;;
2022/10/19 16:18:32;;;;;;;63.42;37.50;;;19.40;99.90;;;;;;5961373;23;20459;-90
2022/10/19 16:20:59;;;;;;;69.25;38.30;;;19.40;99.90;;;;;;5960162;24;20052;-92
2022/10/19 16:24:13;;;;;;;66.03;37.47;;;19.40;99.90;;;;;;5962015;24;20024;-93
2022/10/19 16:26:40;;;;;;;66.10;35.90;;;19.40;99.90;;;;;;5955812;23;20091;-92
2022/10/19 16:29:06;;;;;;;66.30;37.85;;;19.30;99.90;;;;;;5952771;24;20083;-93
2022/10/19 16:31:33;;;;;;;63.78;38.50;;;19.30;99.90;;;;;;5956103;24;20053;-92
2022/10/19 16:33:59;;;;;;;74.38;39.30;;;19.30;99.90;;;;;;5956422;24;20332;-92
2022/10/19 16:36:38;;;;;;;70.25;40.00;;;19.30;99.90;;;;;;5927033;23;20017;-93
2022/10/19 16:39:14;;;;;;;63.85;38.42;;;19.30;99.90;;;;;;5900603;24;20013;-92
2022/10/19 16:41:47;;;;;;;70.43;39.30;;;19.20;99.90;;;;;;5902612;23;20069;-93
2022/10/19 16:44:20;;;;;;;72.78;39.95;;;19.20;99.90;;;;;;6012677;23;20023;-94
2022/10/19 16:46:49;;;;;;;75.45;41.85;;;19.20;99.90;;;;;;6097533;23;20030;-91
2022/10/19 16:49:16;;;;;;;85.82;43.38;;;19.20;99.90;;;;;;6097360;23;20348;-92
2022/10/19 16:51:43;;;;;;;80.03;42.22;;;19.10;99.90;;;;;;6073564;23;20003;-93
2022/10/19 16:54:12;;;;;;;75.78;41.63;;;19.10;99.90;;;;;;6098712;23;20038;-92
2022/10/19 16:56:46;;;;;;;76.15;41.55;;;19.10;99.90;;;;;;6074236;23;20389;-95
2022/10/19 16:59:17;;;;;;;78.97;40.92;;;19.00;99.90;;;;;;6073037;23;20034;-93
2022/10/19 17:01:45;;;;;;;66.35;39.28;;;19.00;99.90;;;;;;6072691;23;20052;-91
2022/10/19 17:04:14;;;;;;;72.57;41.45;;;19.00;99.90;;;;;;6146040;23;20017;-91
2022/10/19 17:06:44;;;;;;;75.85;41.40;;;19.00;99.90;;;;;;6139113;23;20084;-93
2022/10/19 17:09:11;;;;;;;73.32;39.78;;;19.10;99.90;;;;;;6137292;23;20075;-91
2022/10/19 17:12:19;;;;;;;74.05;41.70;;;19.00;99.90;;;;;;6153949;22;20914;-93
2022/10/19 17:15:18;;;;;;;77.60;43.10;;;19.00;99.90;;;;;;6255953;22;20014;-94
2022/10/19 17:21:34;;;;;;;79.00;42.22;;;18.90;99.90;;;;;;6102599;23;20436;-93
2022/10/19 17:24:30;;;;;;;85.38;43.70;;;18.90;99.90;;;;;;6096468;23;20022;-92
2022/10/19 17:31:23;;;;;;;85.90;43.05;;;18.80;99.90;;;;;;6068008;23;20349;-94
2022/10/19 17:33:53;;;;;;;79.80;42.42;;;18.80;99.90;;;;;;6068026;23;20011;-92
2022/10/19 17:36:27;;;;;;;86.60;43.00;;;18.80;99.90;;;;;;6068107;23;20026;-92
2022/10/19 17:38:56;;;;;;;82.57;41.95;;;18.70;99.90;;;;;;6161420;23;20104;-91
2022/10/19 17:41:24;;;;;;;90.60;42.60;;;18.70;99.90;;;;;;6190553;23;20013;-93
2022/10/19 17:44:01;;;;;;;87.20;43.95;;;18.70;99.90;;;;;;6190891;23;20020;-92
2022/10/19 17:47:22;;;;;;;80.30;41.10;;;18.70;99.90;;;;;;6194389;23;20008;-93
2022/10/19 17:49:50;;;;;;;83.47;44.30;;;18.60;99.90;;;;;;6107147;23;20010;-93
2022/10/19 17:52:20;;;;;;;84.47;41.67;;;18.60;99.90;;;;;;6131639;23;20010;-91
2022/10/19 17:57:58;;;;;;;87.45;45.10;;;18.60;99.90;;;;;;6230394;23;20032;-93
2022/10/19 18:00:43;;;;;;;86.80;43.65;;;18.60;99.90;;;;;;6173447;23;20319;-93
2022/10/19 18:03:14;;;;;;;99.95;46.55;;;18.60;99.90;;;;;;6165542;23;20095;-93